Time;durP1;ratioP1;P1;durP2;ratioP2;P2;SDS_P1;SDS_P2;PMS_P1;PMS_P2;Temp;Humidity;BMP_temperature;BMP_pressure;BME280_temperature;BME280_humidity;BME280_pressure;Samples;Min_cycle;Max_cycle;Signal;HPM_P1;HPM_P2
2021/03/23 00:00:34;;;;;;;8.30;3.80;;;5.40;84.70;5.80;100173.00;;;;335220;29;91803;-89
2021/03/23 00:00:51;;;;;;;8.57;3.50;;;5.40;84.70;5.80;100177.00;;;;340326;28;87759;-88
2021/03/23 00:01:17;;;;;;;7.78;3.22;;;5.40;84.70;5.80;100174.00;;;;333778;28;89637;-87
2021/03/23 00:01:29;;;;;;;7.65;3.58;;;5.40;84.60;5.80;100172.00;;;;339254;28;88662;-88
2021/03/23 00:01:42;;;;;;;6.78;3.40;;;5.40;84.70;5.80;100179.00;;;;333913;28;89841;-87
2021/03/23 00:01:54;;;;;;;6.15;3.42;;;5.40;84.70;5.90;100172.00;;;;341807;28;87253;-89
2021/03/23 00:02:10;;;;;;;6.00;3.38;;;5.40;84.70;5.90;100163.00;;;;332676;29;90657;-87
2021/03/23 00:02:21;;;;;;;8.05;3.75;;;5.40;84.70;5.80;100155.00;;;;333782;29;87060;-89
2021/03/23 00:02:33;;;;;;;8.85;3.80;;;5.40;84.70;5.70;100174.00;;;;339382;28;90719;-88
2021/03/23 00:02:57;;;;;;;8.65;3.80;;;5.40;84.70;5.80;100169.00;;;;333725;29;88336;-87
2021/03/23 00:03:15;;;;;;;5.32;3.00;;;5.40;84.70;5.80;100166.00;;;;332403;29;91556;-88
2021/03/23 00:03:29;;;;;;;5.18;3.00;;;5.40;84.70;5.80;100164.00;;;;341465;28;87386;-88
2021/03/23 00:03:47;;;;;;;5.47;3.00;;;5.40;84.70;5.70;100164.00;;;;338054;28;90558;-87
2021/03/23 00:03:59;;;;;;;9.02;3.95;;;5.40;84.60;5.70;100163.00;;;;339106;28;88336;-88
2021/03/23 00:04:12;;;;;;;9.18;4.30;;;5.40;84.60;5.80;100157.00;;;;332766;28;88869;-88
2021/03/23 00:04:24;;;;;;;6.63;3.67;;;5.40;84.70;5.80;100168.00;;;;337752;28;87608;-88
2021/03/23 00:04:37;;;;;;;5.45;3.33;;;5.40;84.70;5.80;100163.00;;;;338082;28;89021;-88
2021/03/23 00:04:49;;;;;;;6.72;3.13;;;5.40;84.80;5.80;100166.00;;;;340396;28;88689;-88
2021/03/23 00:05:01;;;;;;;7.63;3.00;;;5.40;84.80;5.80;100174.00;;;;339072;28;91592;-89
2021/03/23 00:05:12;;;;;;;6.68;2.90;;;5.40;84.80;5.80;100164.00;;;;340397;28;87299;-88
2021/03/23 00:05:24;;;;;;;5.78;3.00;;;5.40;84.80;5.80;100159.00;;;;340288;28;91455;-89
2021/03/23 00:05:35;;;;;;;6.72;3.13;;;5.40;84.90;5.80;100167.00;;;;338802;28;88678;-89
2021/03/23 00:05:47;;;;;;;7.53;3.65;;;5.40;84.80;5.70;100167.00;;;;338934;28;91481;-88
2021/03/23 00:05:59;;;;;;;8.63;4.03;;;5.40;84.70;5.70;100175.00;;;;336062;28;88390;-89
2021/03/23 00:06:20;;;;;;;8.57;4.10;;;5.40;84.70;5.70;100161.00;;;;338913;28;89719;-88
2021/03/23 00:06:31;;;;;;;6.93;3.53;;;5.30;84.70;5.70;100162.00;;;;339485;28;88566;-88
2021/03/23 00:06:43;;;;;;;6.60;4.00;;;5.40;84.80;5.80;100160.00;;;;334673;29;91702;-89
2021/03/23 00:06:54;;;;;;;6.10;4.07;;;5.30;84.80;5.80;100164.00;;;;338554;28;88302;-88
2021/03/23 00:07:06;;;;;;;5.60;3.60;;;5.40;84.90;5.80;100159.00;;;;333533;29;89049;-88
2021/03/23 00:07:17;;;;;;;6.32;3.28;;;5.40;84.90;5.80;100164.00;;;;341466;28;86816;-88
2021/03/23 00:07:28;;;;;;;6.78;3.40;;;5.40;85.00;5.80;100173.00;;;;333276;29;91250;-88
2021/03/23 00:07:40;;;;;;;6.85;3.83;;;5.40;85.00;5.80;100166.00;;;;332091;29;88276;-88
2021/03/23 00:07:51;;;;;;;7.68;3.85;;;5.40;85.00;5.70;100173.00;;;;333514;29;90982;-88
2021/03/23 00:08:07;;;;;;;7.60;3.50;;;5.40;85.00;5.80;100173.00;;;;334633;29;88561;-89
2021/03/23 00:08:38;;;;;;;7.60;3.65;;;5.30;84.90;5.60;100160.00;;;;340152;28;90265;-88
2021/03/23 00:08:53;;;;;;;6.22;3.60;;;5.30;84.90;5.70;100165.00;;;;333205;29;87194;-90
2021/03/23 00:09:05;;;;;;;6.20;3.38;;;5.30;85.00;5.80;100166.00;;;;333353;29;90534;-88
2021/03/23 00:09:17;;;;;;;6.70;3.05;;;5.30;85.00;5.80;100161.00;;;;333202;28;86084;-88
2021/03/23 00:09:28;;;;;;;7.28;3.35;;;5.30;85.00;5.80;100164.00;;;;338529;28;89356;-88
2021/03/23 00:09:39;;;;;;;5.80;3.30;;;5.40;85.10;5.90;100169.00;;;;331876;29;88702;-88
2021/03/23 00:09:51;;;;;;;5.72;3.58;;;5.40;85.10;5.80;100164.00;;;;339645;28;90086;-88
2021/03/23 00:10:03;;;;;;;6.85;3.75;;;5.40;85.10;5.70;100170.00;;;;333131;29;88724;-88
2021/03/23 00:10:17;;;;;;;6.65;3.63;;;5.30;85.00;5.80;100166.00;;;;340261;28;90390;-88
2021/03/23 00:10:29;;;;;;;5.20;3.03;;;5.40;85.00;5.70;100165.00;;;;333294;29;88321;-87
2021/03/23 00:10:40;;;;;;;5.70;3.28;;;5.40;85.10;5.70;100173.00;;;;342626;28;90366;-88
2021/03/23 00:10:53;;;;;;;6.68;3.75;;;5.40;85.10;5.70;100167.00;;;;333514;28;86883;-88
2021/03/23 00:11:29;;;;;;;7.78;3.97;;;5.40;85.10;5.70;100170.00;;;;341746;28;90643;-88
2021/03/23 00:11:42;;;;;;;9.23;3.50;;;5.40;85.20;5.70;100171.00;;;;337342;28;88000;-89
2021/03/23 00:11:54;;;;;;;8.70;3.25;;;5.30;85.20;5.70;100168.00;;;;336115;29;88385;-90
2021/03/23 00:12:06;;;;;;;7.43;3.42;;;5.30;85.20;5.80;100161.00;;;;336282;29;87626;-89
2021/03/23 00:12:17;;;;;;;5.50;3.38;;;5.40;85.20;5.70;100168.00;;;;341276;28;90807;-89
2021/03/23 00:12:28;;;;;;;6.00;3.30;;;5.40;85.30;5.80;100166.00;;;;341373;28;87166;-89
2021/03/23 00:12:40;;;;;;;6.70;3.20;;;5.40;85.10;5.80;100167.00;;;;342934;28;90487;-86
2021/03/23 00:12:52;;;;;;;7.32;3.13;;;5.30;85.00;5.80;100168.00;;;;342052;28;87087;-87
2021/03/23 00:13:03;;;;;;;7.53;3.40;;;5.30;85.00;5.80;100156.00;;;;342749;28;89640;-89
2021/03/23 00:13:14;;;;;;;7.65;3.70;;;5.40;85.10;5.80;100171.00;;;;335958;29;87121;-88
2021/03/23 00:13:26;;;;;;;5.93;3.72;;;5.40;85.70;5.80;100160.00;;;;342972;28;90676;-87
2021/03/23 00:13:39;;;;;;;5.15;3.42;;;5.40;85.10;5.80;100164.00;;;;341444;28;87242;-87
2021/03/23 00:13:51;;;;;;;6.05;3.72;;;5.40;85.10;5.80;100159.00;;;;341789;28;90408;-88
2021/03/23 00:14:05;;;;;;;9.52;4.18;;;5.40;85.00;5.70;100161.00;;;;335949;29;86009;-88
2021/03/23 00:14:16;;;;;;;10.93;4.25;;;5.40;85.00;5.80;100167.00;;;;342811;28;90621;-87
2021/03/23 00:14:29;;;;;;;7.63;3.50;;;5.40;84.90;5.80;100167.00;;;;335879;29;88702;-87
2021/03/23 00:14:41;;;;;;;7.80;3.20;;;5.40;84.90;5.80;100164.00;;;;342793;28;90584;-88
2021/03/23 00:14:53;;;;;;;6.57;3.20;;;5.40;84.90;5.80;100160.00;;;;342962;28;85271;-89
2021/03/23 00:15:08;;;;;;;6.13;3.38;;;5.40;84.90;5.70;100171.00;;;;343042;28;89629;-88
2021/03/23 00:15:20;;;;;;;7.35;3.67;;;5.40;84.90;5.70;100166.00;;;;339776;28;88705;-89
2021/03/23 00:15:31;;;;;;;7.85;3.42;;;5.40;84.90;5.70;100175.00;;;;341323;28;90473;-89
2021/03/23 00:15:43;;;;;;;7.80;3.28;;;5.30;84.80;5.80;100159.00;;;;333498;29;87730;-88
2021/03/23 00:15:55;;;;;;;7.53;3.35;;;5.40;84.90;5.70;100165.00;;;;341754;28;91408;-89
2021/03/23 00:16:06;;;;;;;8.07;3.50;;;5.40;85.00;5.70;100165.00;;;;333230;29;88555;-88
2021/03/23 00:16:22;;;;;;;9.10;3.90;;;5.40;85.00;5.70;100165.00;;;;341780;28;87886;-88
2021/03/23 00:16:38;;;;;;;7.72;4.07;;;5.30;84.90;5.70;100166.00;;;;335994;28;86482;-88
2021/03/23 00:16:50;;;;;;;6.43;3.45;;;5.40;85.00;5.70;100161.00;;;;341777;28;90295;-87
2021/03/23 00:17:02;;;;;;;8.05;3.33;;;5.30;85.00;5.80;100160.00;;;;332225;29;88146;-88
2021/03/23 00:17:13;;;;;;;8.43;3.40;;;5.40;85.10;5.70;100167.00;;;;341623;28;90420;-89
2021/03/23 00:17:25;;;;;;;8.98;3.70;;;5.30;85.00;5.70;100164.00;;;;334362;28;87710;-89
2021/03/23 00:17:37;;;;;;;8.15;3.58;;;5.30;85.00;5.60;100157.00;;;;340126;28;90605;-88
2021/03/23 00:17:50;;;;;;;8.45;3.97;;;5.30;85.10;5.60;100162.00;;;;335925;29;88211;-88
2021/03/23 00:18:01;;;;;;;8.32;3.83;;;5.30;85.10;5.60;100159.00;;;;341309;28;90403;-88
2021/03/23 00:18:13;;;;;;;8.18;3.80;;;5.30;85.10;5.70;100166.00;;;;342791;28;87728;-88
2021/03/23 00:18:25;;;;;;;7.05;3.67;;;5.30;85.10;5.70;100169.00;;;;341372;28;91196;-88
2021/03/23 00:18:36;;;;;;;6.35;3.33;;;5.30;85.10;5.70;100175.00;;;;341211;28;87040;-89
2021/03/23 00:18:48;;;;;;;5.30;3.22;;;5.30;85.20;5.70;100165.00;;;;340216;28;88855;-88
2021/03/23 00:19:00;;;;;;;6.40;3.10;;;5.30;85.20;5.80;100157.00;;;;340099;28;88083;-88
2021/03/23 00:19:13;;;;;;;7.20;3.17;;;5.30;85.20;5.80;100164.00;;;;338854;28;91137;-88
2021/03/23 00:19:25;;;;;;;10.35;3.75;;;5.30;85.10;5.80;100163.00;;;;335775;28;86999;-89
2021/03/23 00:19:36;;;;;;;11.75;4.28;;;5.40;85.20;5.80;100164.00;;;;334660;29;91881;-88
2021/03/23 00:19:48;;;;;;;9.60;4.13;;;5.30;85.20;5.80;100163.00;;;;335781;28;87329;-87
2021/03/23 00:19:59;;;;;;;8.00;3.70;;;5.30;85.10;5.70;100162.00;;;;332171;29;89268;-88
2021/03/23 00:20:13;;;;;;;8.18;3.60;;;5.30;85.10;5.70;100163.00;;;;332050;29;88685;-89
2021/03/23 00:20:24;;;;;;;9.90;3.60;;;5.30;85.10;5.70;100163.00;;;;333448;29;91531;-88
2021/03/23 00:20:37;;;;;;;10.02;3.60;;;5.30;85.10;5.60;100165.00;;;;333178;29;88412;-88
2021/03/23 00:20:49;;;;;;;8.02;3.58;;;5.40;85.10;5.70;100167.00;;;;334676;28;90949;-88
2021/03/23 00:21:00;;;;;;;8.65;3.60;;;5.30;85.10;5.70;100159.00;;;;334577;29;88100;-89
2021/03/23 00:21:12;;;;;;;9.00;3.55;;;5.30;85.10;5.70;100164.00;;;;333291;29;90289;-88
2021/03/23 00:21:24;;;;;;;6.38;3.17;;;5.30;85.00;5.70;100164.00;;;;332879;28;88778;-88
2021/03/23 00:21:36;;;;;;;6.30;3.25;;;5.30;85.20;5.70;100172.00;;;;339409;28;91424;-89
2021/03/23 00:21:48;;;;;;;7.05;3.80;;;5.30;85.20;5.60;100155.00;;;;334492;29;87415;-88
2021/03/23 00:21:59;;;;;;;7.57;3.60;;;5.30;85.20;5.60;100165.00;;;;340123;28;91443;-88
2021/03/23 00:22:10;;;;;;;6.97;3.58;;;5.30;85.20;5.60;100169.00;;;;333252;29;88838;-88
2021/03/23 00:22:22;;;;;;;7.38;3.08;;;5.30;85.20;5.70;100168.00;;;;337715;28;91819;-88
2021/03/23 00:22:34;;;;;;;7.75;3.28;;;5.30;85.20;5.80;100163.00;;;;341313;28;87665;-89
2021/03/23 00:22:46;;;;;;;6.15;2.90;;;5.30;85.30;5.70;100154.00;;;;340081;28;91411;-88
2021/03/23 00:22:57;;;;;;;6.22;2.70;;;5.30;85.30;5.70;100164.00;;;;334629;29;87306;-88
2021/03/23 00:23:09;;;;;;;7.40;3.20;;;5.30;85.40;5.80;100170.00;;;;341420;28;90899;-88
2021/03/23 00:23:20;;;;;;;7.53;3.50;;;5.30;85.40;5.70;100167.00;;;;333212;29;87238;-88
2021/03/23 00:23:32;;;;;;;6.35;3.40;;;5.30;85.40;5.70;100164.00;;;;337638;28;88749;-88
2021/03/23 00:23:43;;;;;;;6.35;3.47;;;5.30;85.40;5.60;100160.00;;;;332072;29;86969;-88
2021/03/23 00:23:55;;;;;;;7.40;3.38;;;5.30;85.40;5.60;100166.00;;;;340022;28;90387;-88
2021/03/23 00:24:06;;;;;;;7.85;3.60;;;5.30;85.40;5.60;100158.00;;;;332034;29;87945;-88
2021/03/23 00:24:18;;;;;;;6.97;3.67;;;5.30;85.50;5.60;100160.00;;;;339532;28;91514;-88
2021/03/23 00:24:29;;;;;;;6.18;3.45;;;5.30;85.50;5.60;100165.00;;;;332578;29;87430;-88
2021/03/23 00:24:41;;;;;;;7.68;3.55;;;5.30;85.60;5.70;100164.00;;;;339950;28;91587;-88
2021/03/23 00:24:53;;;;;;;7.60;3.47;;;5.20;85.50;5.60;100165.00;;;;334712;28;87197;-88
2021/03/23 00:25:09;;;;;;;6.65;3.58;;;5.20;85.50;5.70;100168.00;;;;341562;28;90240;-88
2021/03/23 00:25:20;;;;;;;6.70;3.60;;;5.30;85.60;5.70;100170.00;;;;332870;28;86222;-88
2021/03/23 00:25:31;;;;;;;6.80;3.40;;;5.30;85.50;5.70;100163.00;;;;338808;28;91358;-88
2021/03/23 00:25:43;;;;;;;6.25;3.33;;;5.30;85.50;5.70;100160.00;;;;337376;28;87904;-88
2021/03/23 00:25:54;;;;;;;5.65;3.28;;;5.30;85.60;5.70;100163.00;;;;338780;28;91381;-88
2021/03/23 00:26:07;;;;;;;4.60;3.08;;;5.30;85.60;5.70;100166.00;;;;337381;28;88316;-88
2021/03/23 00:26:19;;;;;;;5.78;3.08;;;5.30;85.60;5.70;100168.00;;;;338840;28;92179;-88
2021/03/23 00:26:30;;;;;;;7.03;2.90;;;5.30;85.50;5.70;100169.00;;;;340082;28;87154;-88
2021/03/23 00:26:42;;;;;;;9.16;3.30;;;5.30;85.60;5.80;100169.00;;;;339760;28;91026;-89
2021/03/23 00:26:53;;;;;;;8.63;3.40;;;5.30;85.60;5.80;100170.00;;;;341478;28;88281;-89
2021/03/23 00:27:06;;;;;;;7.68;3.53;;;5.30;85.60;5.80;100158.00;;;;338877;28;91009;-88
2021/03/23 00:27:17;;;;;;;6.63;3.58;;;5.30;85.50;5.70;100163.00;;;;337580;28;88416;-89
2021/03/23 00:27:29;;;;;;;7.82;3.95;;;5.30;85.40;5.60;100162.00;;;;338299;28;90575;-88
2021/03/23 00:27:40;;;;;;;9.15;4.07;;;5.30;85.30;5.70;100164.00;;;;332108;29;86877;-87
2021/03/23 00:27:52;;;;;;;9.90;4.43;;;5.30;85.30;5.70;100161.00;;;;339969;28;89764;-88
2021/03/23 00:28:05;;;;;;;8.65;3.85;;;5.30;85.20;5.70;100168.00;;;;331897;29;88762;-88
2021/03/23 00:28:16;;;;;;;9.15;3.25;;;5.30;85.30;5.60;100172.00;;;;338892;28;92654;-88
2021/03/23 00:28:28;;;;;;;10.57;3.55;;;5.30;85.50;5.60;100166.00;;;;331962;29;87898;-88
2021/03/23 00:28:39;;;;;;;9.85;3.80;;;5.30;85.50;5.70;100170.00;;;;330782;29;91622;-88
2021/03/23 00:28:53;;;;;;;7.65;3.72;;;5.30;85.50;5.80;100173.00;;;;331967;29;86329;-88
2021/03/23 00:29:05;;;;;;;7.25;3.22;;;5.30;85.50;5.80;100160.00;;;;332220;29;91208;-88
2021/03/23 00:29:16;;;;;;;6.95;3.13;;;5.30;85.50;5.70;100162.00;;;;334505;29;88218;-88
2021/03/23 00:29:28;;;;;;;7.53;3.63;;;5.30;85.50;5.70;100176.00;;;;334835;29;87741;-88
2021/03/23 00:29:39;;;;;;;8.63;4.22;;;5.30;85.50;5.60;100162.00;;;;333406;29;87501;-88
2021/03/23 00:29:50;;;;;;;7.43;4.00;;;5.30;85.30;5.60;100165.00;;;;333342;29;90719;-88
2021/03/23 00:30:06;;;;;;;6.28;3.65;;;5.30;85.40;5.60;100167.00;;;;333235;29;88257;-88
2021/03/23 00:30:18;;;;;;;6.55;3.78;;;5.30;85.40;5.60;100172.00;;;;333308;29;90755;-89
2021/03/23 00:30:30;;;;;;;7.35;4.13;;;5.30;85.50;5.60;100173.00;;;;331442;29;87344;-88
2021/03/23 00:30:41;;;;;;;7.63;3.97;;;5.30;85.40;5.70;100169.00;;;;340017;28;92048;-89
2021/03/23 00:30:53;;;;;;;6.95;3.78;;;5.30;85.50;5.70;100165.00;;;;331320;29;87215;-88
2021/03/23 00:31:05;;;;;;;7.65;4.43;;;5.30;85.40;5.70;100168.00;;;;333453;29;91026;-88
2021/03/23 00:31:34;;;;;;;6.93;3.55;;;5.30;85.40;5.70;100165.00;;;;334503;29;87671;-87
2021/03/23 00:31:46;;;;;;;5.70;3.45;;;5.30;85.30;5.60;100163.00;;;;334631;29;91652;-89
2021/03/23 00:31:58;;;;;;;6.35;3.42;;;5.30;85.50;5.60;100163.00;;;;334521;28;88834;-88
2021/03/23 00:32:10;;;;;;;6.20;3.20;;;5.30;85.50;5.70;100161.00;;;;333408;29;91480;-88
2021/03/23 00:32:22;;;;;;;5.50;3.28;;;5.30;85.50;5.70;100179.00;;;;334587;29;86939;-89
2021/03/23 00:32:33;;;;;;;5.72;3.30;;;5.30;85.50;5.70;100167.00;;;;333408;29;91774;-88
2021/03/23 00:32:46;;;;;;;7.15;3.30;;;5.30;85.50;5.70;100167.00;;;;335760;28;87681;-89
2021/03/23 00:32:57;;;;;;;7.32;3.38;;;5.30;85.60;5.70;100172.00;;;;334671;29;91579;-88
2021/03/23 00:33:09;;;;;;;6.97;3.90;;;5.30;85.50;5.70;100174.00;;;;335963;28;88284;-88
2021/03/23 00:33:22;;;;;;;7.45;4.65;;;5.30;85.50;5.70;100180.00;;;;331544;29;88895;-88
2021/03/23 00:33:34;;;;;;;7.00;4.50;;;5.30;85.50;5.70;100173.00;;;;339917;28;88595;-88
2021/03/23 00:33:45;;;;;;;6.40;3.72;;;5.30;85.50;5.70;100181.00;;;;333353;29;91356;-89
2021/03/23 00:33:59;;;;;;;6.97;3.53;;;5.30;85.50;5.70;100167.00;;;;339776;28;87431;-88
2021/03/23 00:34:10;;;;;;;7.54;3.58;;;5.30;85.50;5.70;100168.00;;;;333124;29;90768;-88
2021/03/23 00:34:21;;;;;;;7.47;3.95;;;5.30;85.50;5.70;100170.00;;;;338542;28;87896;-88
2021/03/23 00:34:33;;;;;;;6.65;3.88;;;5.30;85.40;5.70;100174.00;;;;330831;29;91742;-90
2021/03/23 00:34:45;;;;;;;6.75;3.60;;;5.30;85.40;5.70;100175.00;;;;338675;28;89388;-88
2021/03/23 00:34:57;;;;;;;5.80;3.38;;;5.30;85.50;5.80;100170.00;;;;334620;29;91061;-87
2021/03/23 00:35:09;;;;;;;6.30;3.33;;;5.30;85.40;5.70;100170.00;;;;337432;28;88841;-88
2021/03/23 00:35:20;;;;;;;7.50;3.78;;;5.30;85.40;5.60;100170.00;;;;333385;29;89801;-88
2021/03/23 00:35:32;;;;;;;8.13;3.42;;;5.30;85.40;5.60;100172.00;;;;339968;28;88397;-88
2021/03/23 00:35:44;;;;;;;7.38;3.25;;;5.30;85.40;5.70;100171.00;;;;333488;29;91070;-88
2021/03/23 00:35:59;;;;;;;8.50;4.15;;;5.30;85.40;5.70;100169.00;;;;339729;28;88278;-88
2021/03/23 00:36:10;;;;;;;8.52;4.22;;;5.30;85.50;5.70;100179.00;;;;333538;29;88895;-88
2021/03/23 00:36:26;;;;;;;9.07;3.70;;;5.30;85.50;5.60;100179.00;;;;338298;28;87199;-88
2021/03/23 00:36:40;;;;;;;7.43;3.45;;;5.30;85.60;5.60;100173.00;;;;333275;29;90715;-88
2021/03/23 00:36:51;;;;;;;5.80;3.47;;;5.30;85.60;5.60;100173.00;;;;342254;28;87579;-89
2021/03/23 00:37:03;;;;;;;6.07;3.42;;;5.30;85.50;5.70;100171.00;;;;333425;29;90361;-88
2021/03/23 00:37:15;;;;;;;7.05;3.83;;;5.30;85.50;5.80;100189.00;;;;338641;28;88968;-89
2021/03/23 00:37:26;;;;;;;9.25;4.47;;;5.30;85.50;5.80;100176.00;;;;333326;29;90887;-88
2021/03/23 00:37:38;;;;;;;9.15;4.47;;;5.30;85.70;5.70;100173.00;;;;334552;29;88377;-88
2021/03/23 00:37:54;;;;;;;6.90;3.60;;;5.30;85.60;5.60;100174.00;;;;333366;29;91932;-88
2021/03/23 00:38:06;;;;;;;9.00;4.22;;;5.30;85.60;5.60;100171.00;;;;334479;29;88702;-88
2021/03/23 00:38:18;;;;;;;8.13;3.97;;;5.30;86.10;5.60;100175.00;;;;333412;29;92204;-88
2021/03/23 00:38:30;;;;;;;8.82;4.03;;;5.30;85.50;5.60;100173.00;;;;332023;29;88387;-88
2021/03/23 00:38:41;;;;;;;9.38;3.97;;;5.30;85.50;5.70;100168.00;;;;332203;29;90421;-88
2021/03/23 00:38:53;;;;;;;7.68;3.70;;;5.30;85.60;5.70;100173.00;;;;331935;29;87794;-89
2021/03/23 00:39:06;;;;;;;5.85;2.97;;;5.30;85.60;5.70;100177.00;;;;334380;28;90445;-88
2021/03/23 00:39:17;;;;;;;5.78;2.83;;;5.30;85.60;5.70;100173.00;;;;333137;28;88766;-88
2021/03/23 00:39:28;;;;;;;7.65;3.55;;;5.30;85.60;5.70;100180.00;;;;342625;28;90031;-88
2021/03/23 00:39:40;;;;;;;10.43;3.97;;;5.30;85.60;5.70;100176.00;;;;333177;29;87458;-88
2021/03/23 00:39:51;;;;;;;11.30;3.85;;;5.30;85.50;5.60;100176.00;;;;333301;29;91761;-88
2021/03/23 00:40:06;;;;;;;8.05;3.42;;;5.40;85.50;5.60;100174.00;;;;331764;29;87352;-88
2021/03/23 00:40:24;;;;;;;5.18;3.20;;;5.30;85.40;5.70;100179.00;;;;332132;29;90511;-89
2021/03/23 00:40:36;;;;;;;5.32;3.35;;;5.30;85.40;5.70;100187.00;;;;339961;28;88396;-88
2021/03/23 00:40:47;;;;;;;7.82;3.80;;;5.30;85.50;5.70;100172.00;;;;333432;29;91405;-88
2021/03/23 00:40:58;;;;;;;9.65;4.22;;;5.30;85.50;5.70;100177.00;;;;340077;28;86065;-88
2021/03/23 00:41:10;;;;;;;10.75;4.32;;;5.30;85.50;5.70;100175.00;;;;332252;29;89872;-88
2021/03/23 00:41:22;;;;;;;8.23;3.97;;;5.30;85.40;5.70;100178.00;;;;338287;28;88063;-90
2021/03/23 00:41:37;;;;;;;10.85;4.07;;;5.30;85.40;5.60;100173.00;;;;332170;29;89661;-88
2021/03/23 00:41:49;;;;;;;9.88;3.45;;;5.30;85.60;5.60;100178.00;;;;337492;28;86283;-88
2021/03/23 00:42:00;;;;;;;6.20;3.15;;;5.30;85.60;5.70;100177.00;;;;330845;29;88924;-88
2021/03/23 00:42:12;;;;;;;5.93;2.90;;;5.30;85.60;5.60;100177.00;;;;335967;28;88739;-88
2021/03/23 00:42:23;;;;;;;6.90;3.10;;;5.30;85.60;5.70;100176.00;;;;330404;28;90703;-89
2021/03/23 00:42:35;;;;;;;8.02;3.35;;;5.30;85.60;5.80;100177.00;;;;339309;28;87982;-89
2021/03/23 00:42:47;;;;;;;6.68;3.45;;;5.30;85.60;5.70;100177.00;;;;333480;29;90769;-88
2021/03/23 00:43:00;;;;;;;8.57;3.20;;;5.30;85.50;5.70;100175.00;;;;338669;28;86957;-88
2021/03/23 00:43:11;;;;;;;7.70;3.28;;;5.30;85.40;5.70;100179.00;;;;334728;29;91597;-88
2021/03/23 00:43:23;;;;;;;8.35;3.38;;;5.30;85.40;5.70;100170.00;;;;338548;28;88276;-88
2021/03/23 00:43:37;;;;;;;6.88;3.38;;;5.30;85.40;5.80;100183.00;;;;333404;29;90744;-88
2021/03/23 00:43:49;;;;;;;5.85;3.00;;;5.30;85.40;5.70;100185.00;;;;340018;28;88415;-88
2021/03/23 00:44:03;;;;;;;7.75;2.92;;;5.30;85.50;5.70;100184.00;;;;333298;29;90647;-88
2021/03/23 00:44:14;;;;;;;9.07;3.28;;;5.30;85.40;5.80;100171.00;;;;341304;28;89121;-88
2021/03/23 00:44:26;;;;;;;6.95;3.55;;;5.40;85.50;5.80;100181.00;;;;334691;29;91388;-88
2021/03/23 00:44:37;;;;;;;6.90;3.63;;;5.40;85.50;5.70;100177.00;;;;339724;28;88711;-89
2021/03/23 00:44:49;;;;;;;5.40;3.08;;;5.40;85.50;5.80;100174.00;;;;340043;28;91641;-89
2021/03/23 00:45:00;;;;;;;6.25;3.13;;;5.30;85.40;5.80;100180.00;;;;341281;28;87730;-89
2021/03/23 00:45:12;;;;;;;6.78;3.55;;;5.40;85.40;5.60;100180.00;;;;341225;28;91607;-88
2021/03/23 00:45:24;;;;;;;9.15;4.10;;;5.30;85.30;5.60;100181.00;;;;340919;28;88408;-88
2021/03/23 00:45:38;;;;;;;9.23;4.57;;;5.30;85.40;5.60;100180.00;;;;339026;28;86866;-89
2021/03/23 00:45:50;;;;;;;8.05;3.95;;;5.30;85.40;5.70;100188.00;;;;338612;28;88132;-89
2021/03/23 00:46:02;;;;;;;6.85;3.60;;;5.30;85.40;5.70;100185.00;;;;334613;29;91318;-89
2021/03/23 00:46:13;;;;;;;7.38;3.53;;;5.30;85.50;5.70;100181.00;;;;340013;28;88149;-88
2021/03/23 00:46:25;;;;;;;9.73;4.03;;;5.30;85.60;5.60;100183.00;;;;332561;29;91545;-88
2021/03/23 00:46:36;;;;;;;9.70;3.83;;;5.30;85.50;5.60;100187.00;;;;330815;29;87263;-88
2021/03/23 00:46:48;;;;;;;9.68;3.38;;;5.30;85.70;5.70;100185.00;;;;333326;29;91322;-88
2021/03/23 00:47:00;;;;;;;8.77;3.17;;;5.30;85.60;5.70;100181.00;;;;333241;29;87414;-89
2021/03/23 00:47:12;;;;;;;8.68;3.03;;;5.30;85.60;5.70;100178.00;;;;336052;28;90763;-88
2021/03/23 00:47:23;;;;;;;8.50;2.95;;;5.30;85.60;5.60;100183.00;;;;334539;29;88686;-88
2021/03/23 00:47:35;;;;;;;7.07;3.22;;;5.30;85.50;5.60;100180.00;;;;332250;29;90007;-88
2021/03/23 00:47:47;;;;;;;7.88;3.22;;;5.30;85.60;5.60;100183.00;;;;332001;29;89062;-88
2021/03/23 00:47:59;;;;;;;7.97;3.30;;;5.30;85.60;5.60;100178.00;;;;332056;29;90340;-90
2021/03/23 00:48:12;;;;;;;7.50;3.50;;;5.30;85.60;5.60;100174.00;;;;333238;29;88266;-88
2021/03/23 00:48:24;;;;;;;7.95;4.18;;;5.30;85.60;5.60;100185.00;;;;332451;28;91608;-89
2021/03/23 00:48:36;;;;;;;8.10;3.92;;;5.30;85.70;5.60;100182.00;;;;338418;28;88806;-88
2021/03/23 00:48:47;;;;;;;7.25;3.65;;;5.20;85.70;5.50;100182.00;;;;334467;29;91747;-89
2021/03/23 00:48:59;;;;;;;7.18;3.65;;;5.20;85.70;5.60;100188.00;;;;334481;29;86905;-89
2021/03/23 00:49:10;;;;;;;6.43;3.25;;;5.20;85.70;5.60;100180.00;;;;334608;29;91625;-88
2021/03/23 00:49:22;;;;;;;6.38;3.15;;;5.20;85.80;5.60;100177.00;;;;331963;29;88245;-89
2021/03/23 00:49:33;;;;;;;6.60;3.15;;;5.20;85.90;5.60;100185.00;;;;332149;29;90953;-88
2021/03/23 00:49:45;;;;;;;7.68;3.47;;;5.20;85.90;5.60;100183.00;;;;333258;29;88013;-88
2021/03/23 00:49:56;;;;;;;7.20;3.55;;;5.20;85.80;5.50;100184.00;;;;333347;29;91327;-89
2021/03/23 00:50:08;;;;;;;6.43;3.50;;;5.20;85.90;5.60;100184.00;;;;333165;29;88275;-88
2021/03/23 00:50:20;;;;;;;7.10;3.90;;;5.20;85.90;5.50;100188.00;;;;333306;29;92071;-91
2021/03/23 00:50:32;;;;;;;8.82;4.18;;;5.20;86.00;5.60;100184.00;;;;333297;29;87977;-88
2021/03/23 00:50:43;;;;;;;8.73;4.05;;;5.20;86.00;5.60;100179.00;;;;333514;29;89942;-88
2021/03/23 00:50:55;;;;;;;8.15;3.47;;;5.20;86.20;5.60;100181.00;;;;334605;29;86921;-88
2021/03/23 00:51:06;;;;;;;6.28;3.33;;;5.20;86.00;5.60;100178.00;;;;332063;29;90458;-88
2021/03/23 00:51:18;;;;;;;6.68;3.58;;;5.20;86.10;5.60;100176.00;;;;332905;28;88830;-89
2021/03/23 00:51:29;;;;;;;5.95;3.63;;;5.20;86.00;5.60;100177.00;;;;338249;28;91102;-88
2021/03/23 00:51:40;;;;;;;5.82;3.65;;;5.20;86.10;5.60;100177.00;;;;330624;29;87681;-88
2021/03/23 00:51:54;;;;;;;5.65;3.30;;;5.20;86.10;5.50;100187.00;;;;339928;28;91742;-89
2021/03/23 00:52:06;;;;;;;6.15;3.65;;;5.20;86.20;5.60;100179.00;;;;341223;28;87056;-88
2021/03/23 00:52:17;;;;;;;5.88;3.85;;;5.20;86.20;5.60;100182.00;;;;332053;28;92216;-88
2021/03/23 00:52:29;;;;;;;7.25;3.38;;;5.20;86.10;5.60;100187.00;;;;338763;28;87241;-88
2021/03/23 00:52:40;;;;;;;6.93;3.08;;;5.20;86.10;5.60;100182.00;;;;330940;29;89359;-89
2021/03/23 00:52:52;;;;;;;7.68;3.67;;;5.20;86.70;5.50;100186.00;;;;338707;28;87049;-88
2021/03/23 00:53:03;;;;;;;7.57;3.88;;;5.20;86.20;5.60;100182.00;;;;332063;28;90510;-88
2021/03/23 00:53:15;;;;;;;8.23;4.03;;;5.20;86.10;5.50;100176.00;;;;337321;28;87639;-89
2021/03/23 00:53:26;;;;;;;10.25;4.47;;;5.20;86.10;5.60;100180.00;;;;333502;29;88345;-88
2021/03/23 00:53:38;;;;;;;8.90;4.32;;;5.20;86.00;5.50;100176.00;;;;341376;28;87479;-88
2021/03/23 00:53:49;;;;;;;7.53;4.15;;;5.20;86.10;5.50;100186.00;;;;330820;29;91083;-88
2021/03/23 00:54:00;;;;;;;6.97;3.80;;;5.10;86.10;5.50;100182.00;;;;337296;28;88920;-88
2021/03/23 00:54:12;;;;;;;9.50;3.80;;;5.20;86.10;5.50;100172.00;;;;332097;29;90877;-88
2021/03/23 00:54:23;;;;;;;8.55;3.30;;;5.10;86.70;5.50;100187.00;;;;340126;28;89228;-88
2021/03/23 00:54:35;;;;;;;6.40;3.10;;;5.20;86.20;5.50;100187.00;;;;333314;29;91586;-89
2021/03/23 00:54:46;;;;;;;5.75;2.83;;;5.20;86.30;5.50;100189.00;;;;332006;29;87136;-88
2021/03/23 00:54:57;;;;;;;9.07;3.08;;;5.10;86.30;5.50;100186.00;;;;333427;29;90982;-88
2021/03/23 00:55:09;;;;;;;10.32;3.25;;;5.10;86.30;5.60;100184.00;;;;339566;28;88008;-89
2021/03/23 00:55:21;;;;;;;9.50;3.38;;;5.10;86.40;5.60;100188.00;;;;330950;29;89725;-87
2021/03/23 00:55:32;;;;;;;7.05;3.45;;;5.10;86.40;5.60;100187.00;;;;332019;29;87045;-88
2021/03/23 00:55:43;;;;;;;7.97;3.33;;;5.10;86.40;5.60;100186.00;;;;331017;29;88576;-90
2021/03/23 00:55:56;;;;;;;8.60;3.30;;;5.10;86.40;5.60;100189.00;;;;331772;28;87877;-88
2021/03/23 00:56:07;;;;;;;8.25;3.15;;;5.20;86.40;5.50;100186.00;;;;333366;29;91550;-88
2021/03/23 00:56:18;;;;;;;7.88;3.20;;;5.20;86.30;5.50;100188.00;;;;333294;29;88284;-88
2021/03/23 00:56:30;;;;;;;6.85;3.20;;;5.10;86.20;5.50;100187.00;;;;333439;29;90647;-88
2021/03/23 00:56:41;;;;;;;8.90;3.58;;;5.10;86.30;5.40;100190.00;;;;334624;29;86056;-88
2021/03/23 00:56:53;;;;;;;9.15;3.88;;;5.10;86.40;5.50;100179.00;;;;332275;29;88027;-88